createdAt,value
2022-12-19T00:01:45.428Z,95.80
2022-12-19T00:08:59.675Z,94.05
2022-12-19T00:32:34.058Z,96.14
2022-12-19T00:47:25.136Z,94.85
2022-12-19T00:50:29.134Z,94.85
2022-12-19T00:53:32.756Z,95.92
2022-12-19T00:56:38.464Z,96.16
2022-12-19T00:59:44.122Z,96.97
2022-12-19T01:02:48.127Z,98.03
2022-12-19T01:05:53.894Z,99.47
2022-12-19T01:08:59.081Z,100.00
2022-12-19T01:12:25.281Z,100.00
2022-12-19T01:15:29.327Z,100.00
2022-12-19T01:33:28.210Z,100.00
2022-12-19T01:48:57.156Z,100.00
2022-12-19T02:16:18.884Z,100.00
2022-12-19T02:20:42.362Z,100.00
2022-12-19T02:28:42.721Z,100.00
2022-12-19T02:45:41.823Z,100.00
2022-12-19T02:49:30.564Z,100.00
2022-12-19T03:01:56.981Z,100.00
2022-12-19T03:35:49.493Z,100.00
2022-12-19T04:22:07.723Z,100.00
2022-12-19T05:06:50.735Z,100.00
2022-12-19T05:09:55.671Z,100.00
2022-12-19T05:13:00.900Z,100.00
2022-12-19T05:16:09.314Z,100.00
2022-12-19T05:19:14.670Z,100.00
2022-12-19T05:22:20.963Z,100.00
2022-12-19T05:25:25.967Z,100.00
2022-12-19T05:28:33.438Z,100.00
2022-12-19T05:32:16.667Z,100.00
2022-12-19T05:35:30.491Z,100.00
2022-12-19T05:42:18.614Z,100.00
2022-12-19T05:45:48.378Z,100.00
2022-12-19T05:52:53.336Z,100.00
2022-12-19T06:00:11.662Z,100.00
2022-12-19T06:06:53.641Z,100.00
2022-12-19T06:14:01.463Z,100.00
2022-12-19T06:17:35.195Z,100.00
2022-12-19T06:20:45.862Z,100.00
2022-12-19T06:23:52.372Z,100.00
2022-12-19T06:26:57.683Z,100.00
2022-12-19T06:30:03.414Z,100.00
2022-12-19T06:33:15.641Z,100.00
2022-12-19T06:36:27.882Z,100.00
2022-12-19T06:39:44.777Z,100.00
2022-12-19T06:43:24.924Z,100.00
2022-12-19T06:46:29.583Z,100.00
2022-12-19T06:53:28.356Z,100.00
2022-12-19T07:04:52.889Z,100.00
2022-12-19T07:16:20.576Z,100.00
2022-12-19T07:19:25.574Z,100.00
2022-12-19T07:30:14.261Z,100.00
2022-12-19T07:33:27.204Z,100.00
2022-12-19T07:55:56.541Z,95.88
2022-12-19T07:58:59.282Z,91.15
2022-12-19T08:02:01.830Z,89.21
2022-12-19T08:05:05.992Z,90.64
2022-12-19T08:08:10.244Z,88.65
2022-12-19T08:11:18.859Z,88.90
2022-12-19T08:14:21.613Z,88.78
2022-12-19T08:17:24.841Z,88.52
2022-12-19T08:20:27.227Z,89.04
2022-12-19T08:23:29.963Z,89.25
2022-12-19T08:26:40.598Z,89.78
2022-12-19T08:29:49.608Z,90.74
2022-12-19T08:32:51.809Z,90.73
2022-12-19T08:35:57.410Z,92.00
2022-12-19T08:39:00.342Z,91.98
2022-12-19T08:42:04.317Z,92.01
2022-12-19T08:45:07.905Z,91.30
2022-12-19T08:48:11.060Z,91.00
2022-12-19T08:59:04.856Z,89.19
2022-12-19T09:02:17.759Z,87.84
2022-12-19T09:06:01.224Z,85.74
2022-12-19T09:09:20.267Z,85.10
2022-12-19T09:12:26.775Z,84.07
2022-12-19T09:15:45.566Z,84.46
2022-12-19T09:18:51.597Z,83.86
2022-12-19T09:21:53.997Z,82.87
2022-12-19T09:24:57.983Z,82.73
2022-12-19T09:28:26.805Z,81.83
2022-12-19T09:31:29.502Z,82.07
2022-12-19T09:34:48.745Z,81.44
2022-12-19T09:37:56.645Z,80.90
2022-12-19T09:41:08.606Z,81.67
2022-12-19T09:44:26.020Z,80.93
2022-12-19T09:47:36.299Z,80.64
2022-12-19T09:51:24.521Z,80.01
2022-12-19T09:55:05.983Z,81.45
2022-12-19T09:58:32.569Z,80.88
2022-12-19T10:02:02.465Z,80.06
2022-12-19T10:05:39.781Z,80.17
2022-12-19T10:09:28.509Z,80.91
2022-12-19T10:12:45.532Z,80.27
2022-12-19T10:16:19.463Z,79.77
2022-12-19T10:19:34.807Z,80.10
2022-12-19T10:23:14.214Z,80.23
2022-12-19T10:26:23.526Z,79.25
2022-12-19T10:29:59.387Z,80.16
2022-12-19T10:33:18.324Z,80.21
2022-12-19T10:36:42.306Z,79.34
2022-12-19T10:40:27.695Z,79.39
2022-12-19T10:43:48.817Z,78.54
2022-12-19T10:58:51.579Z,76.18
2022-12-19T11:02:28.738Z,76.62
2022-12-19T11:05:43.472Z,75.87
2022-12-19T11:09:23.995Z,75.19
2022-12-19T11:18:27.429Z,75.32
2022-12-19T11:29:31.407Z,74.51
2022-12-19T11:29:37.218Z,75.39
2022-12-19T11:30:44.326Z,76.24
2022-12-19T11:47:57.502Z,75.20
2022-12-19T11:51:18.991Z,75.82
2022-12-19T12:02:59.898Z,76.71
2022-12-19T12:06:15.739Z,75.73
2022-12-19T12:13:27.109Z,75.21
